sensor_id;sensor_type;location;lat;lon;timestamp;P1;durP1;ratioP1;P2;durP2;ratioP2
75535;SDS011;64119;52.070;20.804;2023-08-07T00:02:24;0.80;;;0.60;;
75535;SDS011;64119;52.070;20.804;2023-08-07T00:04:52;0.40;;;0.30;;
75535;SDS011;64119;52.070;20.804;2023-08-07T00:07:20;0.50;;;0.50;;
75535;SDS011;64119;52.070;20.804;2023-08-07T00:09:48;2.60;;;0.70;;
75535;SDS011;64119;52.070;20.804;2023-08-07T00:12:15;1.20;;;0.40;;
75535;SDS011;64119;52.070;20.804;2023-08-07T00:14:44;0.70;;;0.50;;
75535;SDS011;64119;52.070;20.804;2023-08-07T00:17:14;1.50;;;0.60;;
75535;SDS011;64119;52.070;20.804;2023-08-07T00:19:42;1.20;;;0.80;;
75535;SDS011;64119;52.070;20.804;2023-08-07T00:22:10;1.70;;;0.80;;
75535;SDS011;64119;52.070;20.804;2023-08-07T00:24:38;1.40;;;0.80;;
75535;SDS011;64119;52.070;20.804;2023-08-07T00:27:05;0.90;;;0.60;;
75535;SDS011;64119;52.070;20.804;2023-08-07T00:29:37;1.60;;;0.90;;
75535;SDS011;64119;52.070;20.804;2023-08-07T00:32:05;1.10;;;0.60;;
75535;SDS011;64119;52.070;20.804;2023-08-07T00:34:33;1.00;;;0.70;;
75535;SDS011;64119;52.070;20.804;2023-08-07T00:37:01;1.00;;;0.70;;
75535;SDS011;64119;52.070;20.804;2023-08-07T00:39:29;1.00;;;0.60;;
75535;SDS011;64119;52.070;20.804;2023-08-07T00:41:57;1.00;;;0.70;;
75535;SDS011;64119;52.070;20.804;2023-08-07T00:44:25;2.30;;;0.80;;
75535;SDS011;64119;52.070;20.804;2023-08-07T00:46:52;1.20;;;0.80;;
75535;SDS011;64119;52.070;20.804;2023-08-07T00:49:22;1.50;;;0.90;;
75535;SDS011;64119;52.070;20.804;2023-08-07T00:51:49;1.60;;;1.00;;
75535;SDS011;64119;52.070;20.804;2023-08-07T00:54:18;1.10;;;0.80;;
75535;SDS011;64119;52.070;20.804;2023-08-07T00:56:47;0.90;;;0.80;;
75535;SDS011;64119;52.070;20.804;2023-08-07T00:59:15;1.70;;;0.80;;
75535;SDS011;64119;52.070;20.804;2023-08-07T01:01:43;1.10;;;0.90;;
75535;SDS011;64119;52.070;20.804;2023-08-07T01:04:12;1.60;;;0.90;;
75535;SDS011;64119;52.070;20.804;2023-08-07T01:06:40;1.50;;;1.00;;
75535;SDS011;64119;52.070;20.804;2023-08-07T01:09:08;2.10;;;1.00;;
75535;SDS011;64119;52.070;20.804;2023-08-07T01:11:39;1.60;;;0.80;;
75535;SDS011;64119;52.070;20.804;2023-08-07T01:14:23;2.70;;;1.00;;
75535;SDS011;64119;52.070;20.804;2023-08-07T01:19:35;1.50;;;1.00;;
75535;SDS011;64119;52.070;20.804;2023-08-07T01:29:52;2.00;;;1.00;;
75535;SDS011;64119;52.070;20.804;2023-08-07T01:35:12;1.60;;;1.10;;
75535;SDS011;64119;52.070;20.804;2023-08-07T01:37:42;3.50;;;1.10;;
75535;SDS011;64119;52.070;20.804;2023-08-07T01:40:11;1.50;;;0.90;;
75535;SDS011;64119;52.070;20.804;2023-08-07T01:42:40;1.40;;;0.90;;
75535;SDS011;64119;52.070;20.804;2023-08-07T01:45:09;1.90;;;1.10;;
75535;SDS011;64119;52.070;20.804;2023-08-07T01:47:37;1.80;;;1.00;;
75535;SDS011;64119;52.070;20.804;2023-08-07T01:50:05;3.00;;;0.90;;
75535;SDS011;64119;52.070;20.804;2023-08-07T01:52:34;1.50;;;1.00;;
75535;SDS011;64119;52.070;20.804;2023-08-07T01:55:02;1.20;;;0.90;;
75535;SDS011;64119;52.070;20.804;2023-08-07T01:57:29;1.40;;;1.00;;
75535;SDS011;64119;52.070;20.804;2023-08-07T01:59:58;1.40;;;1.00;;
75535;SDS011;64119;52.070;20.804;2023-08-07T02:02:26;1.70;;;1.30;;
75535;SDS011;64119;52.070;20.804;2023-08-07T02:04:54;1.20;;;0.90;;
75535;SDS011;64119;52.070;20.804;2023-08-07T02:07:22;2.50;;;1.20;;
75535;SDS011;64119;52.070;20.804;2023-08-07T02:09:49;1.30;;;1.00;;
75535;SDS011;64119;52.070;20.804;2023-08-07T02:12:17;2.00;;;1.30;;
75535;SDS011;64119;52.070;20.804;2023-08-07T02:14:45;1.60;;;0.90;;
75535;SDS011;64119;52.070;20.804;2023-08-07T02:17:13;1.90;;;1.10;;
75535;SDS011;64119;52.070;20.804;2023-08-07T02:19:41;1.50;;;1.20;;
75535;SDS011;64119;52.070;20.804;2023-08-07T02:22:09;1.40;;;1.10;;
75535;SDS011;64119;52.070;20.804;2023-08-07T02:24:37;1.70;;;1.10;;
75535;SDS011;64119;52.070;20.804;2023-08-07T02:27:06;1.60;;;1.00;;
75535;SDS011;64119;52.070;20.804;2023-08-07T02:29:36;1.20;;;1.00;;
75535;SDS011;64119;52.070;20.804;2023-08-07T02:32:04;3.20;;;1.20;;
75535;SDS011;64119;52.070;20.804;2023-08-07T02:34:32;1.60;;;1.00;;
75535;SDS011;64119;52.070;20.804;2023-08-07T02:37:00;2.30;;;1.50;;
75535;SDS011;64119;52.070;20.804;2023-08-07T02:39:28;2.00;;;1.40;;
75535;SDS011;64119;52.070;20.804;2023-08-07T02:41:56;3.00;;;1.20;;
75535;SDS011;64119;52.070;20.804;2023-08-07T02:44:23;1.70;;;1.20;;
75535;SDS011;64119;52.070;20.804;2023-08-07T02:46:51;1.30;;;0.80;;
75535;SDS011;64119;52.070;20.804;2023-08-07T02:49:20;3.80;;;1.20;;
75535;SDS011;64119;52.070;20.804;2023-08-07T02:51:48;1.70;;;1.10;;
75535;SDS011;64119;52.070;20.804;2023-08-07T02:54:16;2.10;;;1.30;;
75535;SDS011;64119;52.070;20.804;2023-08-07T02:56:43;2.30;;;1.10;;
75535;SDS011;64119;52.070;20.804;2023-08-07T02:59:11;1.70;;;1.30;;
75535;SDS011;64119;52.070;20.804;2023-08-07T03:01:39;2.10;;;1.00;;
75535;SDS011;64119;52.070;20.804;2023-08-07T03:04:07;2.10;;;1.30;;
75535;SDS011;64119;52.070;20.804;2023-08-07T03:06:34;2.60;;;1.00;;
75535;SDS011;64119;52.070;20.804;2023-08-07T03:09:02;1.50;;;1.10;;
75535;SDS011;64119;52.070;20.804;2023-08-07T03:11:31;2.20;;;1.20;;
75535;SDS011;64119;52.070;20.804;2023-08-07T03:13:58;1.60;;;1.30;;
75535;SDS011;64119;52.070;20.804;2023-08-07T03:16:26;2.50;;;1.00;;
75535;SDS011;64119;52.070;20.804;2023-08-07T03:18:54;2.30;;;1.30;;
75535;SDS011;64119;52.070;20.804;2023-08-07T03:21:22;1.70;;;1.10;;
75535;SDS011;64119;52.070;20.804;2023-08-07T03:23:51;1.70;;;0.90;;
75535;SDS011;64119;52.070;20.804;2023-08-07T03:26:19;2.40;;;1.10;;
75535;SDS011;64119;52.070;20.804;2023-08-07T03:28:48;1.70;;;1.00;;
75535;SDS011;64119;52.070;20.804;2023-08-07T03:31:16;2.80;;;1.20;;
75535;SDS011;64119;52.070;20.804;2023-08-07T03:33:45;2.40;;;1.10;;
75535;SDS011;64119;52.070;20.804;2023-08-07T03:36:14;1.40;;;0.90;;
75535;SDS011;64119;52.070;20.804;2023-08-07T03:38:41;1.40;;;1.00;;
75535;SDS011;64119;52.070;20.804;2023-08-07T03:41:10;1.40;;;0.90;;
75535;SDS011;64119;52.070;20.804;2023-08-07T03:43:41;1.60;;;0.90;;
75535;SDS011;64119;52.070;20.804;2023-08-07T03:46:10;1.10;;;0.90;;
75535;SDS011;64119;52.070;20.804;2023-08-07T03:48:38;1.50;;;1.00;;
75535;SDS011;64119;52.070;20.804;2023-08-07T03:51:07;1.30;;;0.90;;
75535;SDS011;64119;52.070;20.804;2023-08-07T03:53:42;2.00;;;1.10;;
75535;SDS011;64119;52.070;20.804;2023-08-07T03:56:10;2.30;;;1.00;;
75535;SDS011;64119;52.070;20.804;2023-08-07T03:58:38;1.30;;;0.90;;
75535;SDS011;64119;52.070;20.804;2023-08-07T04:01:06;2.50;;;0.90;;
75535;SDS011;64119;52.070;20.804;2023-08-07T04:03:35;2.00;;;0.80;;
75535;SDS011;64119;52.070;20.804;2023-08-07T04:06:04;2.60;;;1.00;;
75535;SDS011;64119;52.070;20.804;2023-08-07T04:08:33;1.40;;;0.80;;
75535;SDS011;64119;52.070;20.804;2023-08-07T04:11:04;1.70;;;1.10;;
75535;SDS011;64119;52.070;20.804;2023-08-07T04:13:33;1.50;;;0.80;;
75535;SDS011;64119;52.070;20.804;2023-08-07T04:16:02;1.10;;;0.80;;
75535;SDS011;64119;52.070;20.804;2023-08-07T04:18:32;1.60;;;0.90;;
75535;SDS011;64119;52.070;20.804;2023-08-07T04:21:02;1.60;;;0.90;;
75535;SDS011;64119;52.070;20.804;2023-08-07T04:25:59;1.20;;;0.80;;
75535;SDS011;64119;52.070;20.804;2023-08-07T04:28:28;1.40;;;0.90;;
75535;SDS011;64119;52.070;20.804;2023-08-07T04:30:56;1.80;;;1.00;;
75535;SDS011;64119;52.070;20.804;2023-08-07T04:33:24;1.80;;;1.00;;
75535;SDS011;64119;52.070;20.804;2023-08-07T04:35:52;1.70;;;1.20;;
75535;SDS011;64119;52.070;20.804;2023-08-07T04:38:20;1.40;;;0.90;;
75535;SDS011;64119;52.070;20.804;2023-08-07T04:40:48;1.20;;;0.90;;
75535;SDS011;64119;52.070;20.804;2023-08-07T04:43:17;2.30;;;0.90;;
75535;SDS011;64119;52.070;20.804;2023-08-07T04:45:48;1.60;;;1.10;;
75535;SDS011;64119;52.070;20.804;2023-08-07T04:48:17;3.00;;;1.60;;
75535;SDS011;64119;52.070;20.804;2023-08-07T04:50:45;1.70;;;0.90;;
75535;SDS011;64119;52.070;20.804;2023-08-07T04:53:14;1.90;;;1.00;;
75535;SDS011;64119;52.070;20.804;2023-08-07T04:55:44;2.00;;;1.20;;
75535;SDS011;64119;52.070;20.804;2023-08-07T04:58:11;4.60;;;1.40;;
75535;SDS011;64119;52.070;20.804;2023-08-07T05:00:40;1.70;;;1.20;;
75535;SDS011;64119;52.070;20.804;2023-08-07T05:03:08;2.00;;;1.20;;
75535;SDS011;64119;52.070;20.804;2023-08-07T05:05:36;2.40;;;1.30;;
75535;SDS011;64119;52.070;20.804;2023-08-07T05:08:04;2.50;;;1.20;;
75535;SDS011;64119;52.070;20.804;2023-08-07T05:10:32;1.70;;;1.20;;
75535;SDS011;64119;52.070;20.804;2023-08-07T05:13:01;2.00;;;1.20;;
75535;SDS011;64119;52.070;20.804;2023-08-07T05:15:29;1.80;;;1.50;;
75535;SDS011;64119;52.070;20.804;2023-08-07T05:17:58;3.40;;;1.80;;
75535;SDS011;64119;52.070;20.804;2023-08-07T05:20:26;2.40;;;1.80;;
75535;SDS011;64119;52.070;20.804;2023-08-07T05:22:54;3.80;;;1.70;;
75535;SDS011;64119;52.070;20.804;2023-08-07T05:25:23;3.00;;;1.50;;
75535;SDS011;64119;52.070;20.804;2023-08-07T05:27:51;2.40;;;1.50;;
75535;SDS011;64119;52.070;20.804;2023-08-07T05:30:19;2.10;;;1.60;;
75535;SDS011;64119;52.070;20.804;2023-08-07T05:32:47;3.40;;;1.60;;
75535;SDS011;64119;52.070;20.804;2023-08-07T05:35:15;2.80;;;1.70;;
75535;SDS011;64119;52.070;20.804;2023-08-07T05:37:43;3.70;;;1.70;;
75535;SDS011;64119;52.070;20.804;2023-08-07T05:40:11;2.20;;;1.70;;
75535;SDS011;64119;52.070;20.804;2023-08-07T05:42:39;3.00;;;1.60;;
75535;SDS011;64119;52.070;20.804;2023-08-07T05:45:09;5.30;;;1.70;;
75535;SDS011;64119;52.070;20.804;2023-08-07T05:50:06;2.00;;;1.10;;
75535;SDS011;64119;52.070;20.804;2023-08-07T05:52:34;5.80;;;1.30;;
75535;SDS011;64119;52.070;20.804;2023-08-07T05:55:03;2.80;;;1.30;;
75535;SDS011;64119;52.070;20.804;2023-08-07T05:57:34;2.40;;;1.30;;
75535;SDS011;64119;52.070;20.804;2023-08-07T06:00:03;3.30;;;1.20;;
75535;SDS011;64119;52.070;20.804;2023-08-07T06:02:38;3.10;;;1.20;;
75535;SDS011;64119;52.070;20.804;2023-08-07T06:05:06;2.20;;;1.40;;
75535;SDS011;64119;52.070;20.804;2023-08-07T06:07:34;3.40;;;1.10;;
75535;SDS011;64119;52.070;20.804;2023-08-07T06:10:02;3.50;;;1.30;;
75535;SDS011;64119;52.070;20.804;2023-08-07T06:12:30;1.80;;;1.20;;
75535;SDS011;64119;52.070;20.804;2023-08-07T06:14:58;2.00;;;1.20;;
75535;SDS011;64119;52.070;20.804;2023-08-07T06:17:27;3.10;;;1.40;;
75535;SDS011;64119;52.070;20.804;2023-08-07T06:19:55;1.60;;;0.80;;
75535;SDS011;64119;52.070;20.804;2023-08-07T06:22:22;2.00;;;1.30;;
75535;SDS011;64119;52.070;20.804;2023-08-07T06:24:50;2.70;;;1.30;;
75535;SDS011;64119;52.070;20.804;2023-08-07T06:27:20;1.90;;;1.00;;
75535;SDS011;64119;52.070;20.804;2023-08-07T06:29:48;2.50;;;1.10;;
75535;SDS011;64119;52.070;20.804;2023-08-07T06:32:16;1.70;;;1.10;;
75535;SDS011;64119;52.070;20.804;2023-08-07T06:37:14;2.40;;;0.90;;
75535;SDS011;64119;52.070;20.804;2023-08-07T06:39:41;2.90;;;1.00;;
75535;SDS011;64119;52.070;20.804;2023-08-07T06:42:09;1.90;;;1.10;;
75535;SDS011;64119;52.070;20.804;2023-08-07T06:44:37;1.40;;;0.80;;
75535;SDS011;64119;52.070;20.804;2023-08-07T06:47:05;1.60;;;0.90;;
75535;SDS011;64119;52.070;20.804;2023-08-07T06:49:34;1.90;;;1.20;;
75535;SDS011;64119;52.070;20.804;2023-08-07T06:52:02;1.60;;;1.00;;
75535;SDS011;64119;52.070;20.804;2023-08-07T06:54:30;2.50;;;0.80;;
75535;SDS011;64119;52.070;20.804;2023-08-07T06:56:58;3.50;;;1.00;;
75535;SDS011;64119;52.070;20.804;2023-08-07T06:59:26;3.30;;;0.80;;
75535;SDS011;64119;52.070;20.804;2023-08-07T07:01:53;1.30;;;0.80;;
75535;SDS011;64119;52.070;20.804;2023-08-07T07:04:22;1.80;;;0.90;;
75535;SDS011;64119;52.070;20.804;2023-08-07T07:06:50;1.50;;;0.80;;
75535;SDS011;64119;52.070;20.804;2023-08-07T07:09:17;2.70;;;1.00;;
75535;SDS011;64119;52.070;20.804;2023-08-07T07:11:45;1.70;;;1.00;;
75535;SDS011;64119;52.070;20.804;2023-08-07T07:14:13;2.50;;;1.10;;
75535;SDS011;64119;52.070;20.804;2023-08-07T07:16:43;1.40;;;1.10;;
75535;SDS011;64119;52.070;20.804;2023-08-07T07:19:11;2.30;;;0.90;;
75535;SDS011;64119;52.070;20.804;2023-08-07T07:21:39;2.20;;;1.00;;
75535;SDS011;64119;52.070;20.804;2023-08-07T07:24:06;1.90;;;1.10;;
75535;SDS011;64119;52.070;20.804;2023-08-07T07:26:34;3.00;;;1.30;;
75535;SDS011;64119;52.070;20.804;2023-08-07T07:29:02;1.80;;;1.00;;
75535;SDS011;64119;52.070;20.804;2023-08-07T07:31:30;1.60;;;0.90;;
75535;SDS011;64119;52.070;20.804;2023-08-07T07:33:58;2.50;;;1.10;;
75535;SDS011;64119;52.070;20.804;2023-08-07T07:36:25;1.50;;;0.90;;
75535;SDS011;64119;52.070;20.804;2023-08-07T07:38:53;1.90;;;1.10;;
75535;SDS011;64119;52.070;20.804;2023-08-07T07:41:21;3.10;;;1.30;;
75535;SDS011;64119;52.070;20.804;2023-08-07T07:43:50;1.90;;;1.10;;
75535;SDS011;64119;52.070;20.804;2023-08-07T07:46:18;2.20;;;1.10;;
75535;SDS011;64119;52.070;20.804;2023-08-07T07:48:46;4.10;;;1.00;;
75535;SDS011;64119;52.070;20.804;2023-08-07T07:51:14;2.30;;;1.20;;
75535;SDS011;64119;52.070;20.804;2023-08-07T07:53:41;1.80;;;1.10;;
75535;SDS011;64119;52.070;20.804;2023-08-07T07:56:09;1.90;;;1.00;;
75535;SDS011;64119;52.070;20.804;2023-08-07T07:58:37;2.30;;;1.10;;
75535;SDS011;64119;52.070;20.804;2023-08-07T08:01:05;1.80;;;1.00;;
75535;SDS011;64119;52.070;20.804;2023-08-07T08:03:33;3.40;;;1.10;;
75535;SDS011;64119;52.070;20.804;2023-08-07T08:06:01;4.60;;;1.30;;
75535;SDS011;64119;52.070;20.804;2023-08-07T08:08:29;1.50;;;0.90;;
75535;SDS011;64119;52.070;20.804;2023-08-07T08:10:57;2.90;;;1.30;;
75535;SDS011;64119;52.070;20.804;2023-08-07T08:13:28;2.50;;;1.10;;
75535;SDS011;64119;52.070;20.804;2023-08-07T08:15:56;2.20;;;1.10;;
75535;SDS011;64119;52.070;20.804;2023-08-07T08:18:24;2.30;;;0.90;;
75535;SDS011;64119;52.070;20.804;2023-08-07T08:20:53;1.70;;;1.00;;
75535;SDS011;64119;52.070;20.804;2023-08-07T08:23:21;1.50;;;0.80;;
75535;SDS011;64119;52.070;20.804;2023-08-07T08:25:49;1.70;;;1.00;;
75535;SDS011;64119;52.070;20.804;2023-08-07T08:30:46;4.10;;;1.00;;
75535;SDS011;64119;52.070;20.804;2023-08-07T08:33:15;2.30;;;1.00;;
75535;SDS011;64119;52.070;20.804;2023-08-07T08:35:45;1.10;;;0.80;;
75535;SDS011;64119;52.070;20.804;2023-08-07T08:38:12;1.20;;;0.70;;
75535;SDS011;64119;52.070;20.804;2023-08-07T08:40:40;3.10;;;0.80;;
75535;SDS011;64119;52.070;20.804;2023-08-07T08:43:08;0.80;;;0.70;;
75535;SDS011;64119;52.070;20.804;2023-08-07T08:45:39;1.30;;;0.60;;
75535;SDS011;64119;52.070;20.804;2023-08-07T08:48:08;2.70;;;0.90;;
75535;SDS011;64119;52.070;20.804;2023-08-07T08:50:44;1.70;;;0.70;;
75535;SDS011;64119;52.070;20.804;2023-08-07T08:53:12;2.00;;;0.70;;
75535;SDS011;64119;52.070;20.804;2023-08-07T08:55:41;5.30;;;0.90;;
75535;SDS011;64119;52.070;20.804;2023-08-07T08:58:13;0.90;;;0.60;;
75535;SDS011;64119;52.070;20.804;2023-08-07T09:00:43;1.30;;;0.60;;
75535;SDS011;64119;52.070;20.804;2023-08-07T09:03:12;2.00;;;0.80;;
75535;SDS011;64119;52.070;20.804;2023-08-07T09:05:41;2.20;;;0.90;;
75535;SDS011;64119;52.070;20.804;2023-08-07T09:08:09;0.90;;;0.60;;
75535;SDS011;64119;52.070;20.804;2023-08-07T09:10:38;1.40;;;0.80;;
75535;SDS011;64119;52.070;20.804;2023-08-07T09:13:09;2.60;;;0.80;;
75535;SDS011;64119;52.070;20.804;2023-08-07T09:15:41;1.70;;;0.70;;
75535;SDS011;64119;52.070;20.804;2023-08-07T09:18:18;3.00;;;0.90;;
75535;SDS011;64119;52.070;20.804;2023-08-07T09:20:49;1.50;;;0.90;;
75535;SDS011;64119;52.070;20.804;2023-08-07T09:23:17;1.10;;;0.60;;
75535;SDS011;64119;52.070;20.804;2023-08-07T09:25:45;1.00;;;0.70;;
75535;SDS011;64119;52.070;20.804;2023-08-07T09:28:13;1.80;;;0.90;;
75535;SDS011;64119;52.070;20.804;2023-08-07T09:30:41;1.60;;;0.90;;
75535;SDS011;64119;52.070;20.804;2023-08-07T09:33:11;2.80;;;0.70;;
75535;SDS011;64119;52.070;20.804;2023-08-07T09:35:40;1.20;;;0.70;;
75535;SDS011;64119;52.070;20.804;2023-08-07T09:38:07;1.90;;;0.70;;
75535;SDS011;64119;52.070;20.804;2023-08-07T09:40:35;1.10;;;0.50;;
75535;SDS011;64119;52.070;20.804;2023-08-07T09:43:03;2.30;;;0.80;;
75535;SDS011;64119;52.070;20.804;2023-08-07T09:45:31;2.60;;;0.90;;
75535;SDS011;64119;52.070;20.804;2023-08-07T09:48:02;4.30;;;1.00;;
75535;SDS011;64119;52.070;20.804;2023-08-07T09:50:31;1.20;;;0.70;;
75535;SDS011;64119;52.070;20.804;2023-08-07T09:52:59;1.30;;;0.80;;
75535;SDS011;64119;52.070;20.804;2023-08-07T09:55:27;2.00;;;1.10;;
75535;SDS011;64119;52.070;20.804;2023-08-07T09:57:55;1.80;;;0.90;;
75535;SDS011;64119;52.070;20.804;2023-08-07T10:00:23;2.40;;;0.80;;
75535;SDS011;64119;52.070;20.804;2023-08-07T10:02:51;5.50;;;0.90;;
75535;SDS011;64119;52.070;20.804;2023-08-07T10:05:19;1.30;;;0.80;;
75535;SDS011;64119;52.070;20.804;2023-08-07T10:07:47;3.00;;;1.40;;
75535;SDS011;64119;52.070;20.804;2023-08-07T10:10:16;1.20;;;0.80;;
75535;SDS011;64119;52.070;20.804;2023-08-07T10:12:44;1.50;;;1.00;;
75535;SDS011;64119;52.070;20.804;2023-08-07T10:15:18;1.90;;;1.00;;
75535;SDS011;64119;52.070;20.804;2023-08-07T10:20:14;1.10;;;0.70;;
75535;SDS011;64119;52.070;20.804;2023-08-07T10:22:42;2.70;;;0.80;;
75535;SDS011;64119;52.070;20.804;2023-08-07T10:25:11;1.70;;;0.90;;
75535;SDS011;64119;52.070;20.804;2023-08-07T10:27:40;2.00;;;0.90;;
75535;SDS011;64119;52.070;20.804;2023-08-07T10:30:10;2.80;;;0.80;;
75535;SDS011;64119;52.070;20.804;2023-08-07T10:32:42;1.80;;;0.80;;
75535;SDS011;64119;52.070;20.804;2023-08-07T10:35:24;3.10;;;0.90;;
75535;SDS011;64119;52.070;20.804;2023-08-07T10:37:53;1.30;;;0.80;;
75535;SDS011;64119;52.070;20.804;2023-08-07T10:40:23;2.50;;;1.00;;
75535;SDS011;64119;52.070;20.804;2023-08-07T10:43:11;1.40;;;0.60;;
75535;SDS011;64119;52.070;20.804;2023-08-07T10:45:41;2.10;;;1.00;;
75535;SDS011;64119;52.070;20.804;2023-08-07T10:48:12;2.30;;;0.90;;
75535;SDS011;64119;52.070;20.804;2023-08-07T10:50:51;3.40;;;1.20;;
75535;SDS011;64119;52.070;20.804;2023-08-07T10:53:30;2.20;;;0.90;;
75535;SDS011;64119;52.070;20.804;2023-08-07T10:56:08;4.80;;;1.00;;
75535;SDS011;64119;52.070;20.804;2023-08-07T10:58:38;1.60;;;0.80;;
75535;SDS011;64119;52.070;20.804;2023-08-07T11:03:55;2.00;;;1.10;;
75535;SDS011;64119;52.070;20.804;2023-08-07T11:06:32;1.50;;;0.70;;
75535;SDS011;64119;52.070;20.804;2023-08-07T11:09:02;1.80;;;0.80;;
75535;SDS011;64119;52.070;20.804;2023-08-07T11:14:09;2.70;;;0.60;;
75535;SDS011;64119;52.070;20.804;2023-08-07T11:16:38;2.70;;;0.80;;
75535;SDS011;64119;52.070;20.804;2023-08-07T11:19:07;1.60;;;1.00;;
75535;SDS011;64119;52.070;20.804;2023-08-07T11:21:36;2.00;;;0.90;;
75535;SDS011;64119;52.070;20.804;2023-08-07T11:24:04;1.20;;;0.80;;
75535;SDS011;64119;52.070;20.804;2023-08-07T11:26:32;1.40;;;0.70;;
75535;SDS011;64119;52.070;20.804;2023-08-07T11:29:00;2.00;;;0.90;;
75535;SDS011;64119;52.070;20.804;2023-08-07T11:31:28;2.60;;;0.80;;
75535;SDS011;64119;52.070;20.804;2023-08-07T11:33:56;2.10;;;1.00;;
75535;SDS011;64119;52.070;20.804;2023-08-07T11:36:25;1.90;;;0.80;;
75535;SDS011;64119;52.070;20.804;2023-08-07T11:38:53;1.60;;;0.80;;
75535;SDS011;64119;52.070;20.804;2023-08-07T11:41:20;1.30;;;0.70;;
75535;SDS011;64119;52.070;20.804;2023-08-07T11:43:48;2.10;;;1.00;;
75535;SDS011;64119;52.070;20.804;2023-08-07T11:46:16;1.50;;;0.80;;
75535;SDS011;64119;52.070;20.804;2023-08-07T11:48:44;1.80;;;1.00;;
75535;SDS011;64119;52.070;20.804;2023-08-07T11:51:12;1.90;;;1.00;;
75535;SDS011;64119;52.070;20.804;2023-08-07T11:53:40;3.60;;;1.20;;
75535;SDS011;64119;52.070;20.804;2023-08-07T11:58:39;2.60;;;0.80;;
75535;SDS011;64119;52.070;20.804;2023-08-07T12:01:24;2.70;;;1.00;;
75535;SDS011;64119;52.070;20.804;2023-08-07T12:03:55;2.80;;;1.10;;
75535;SDS011;64119;52.070;20.804;2023-08-07T12:06:38;2.20;;;1.10;;
75535;SDS011;64119;52.070;20.804;2023-08-07T12:09:19;2.50;;;1.00;;
75535;SDS011;64119;52.070;20.804;2023-08-07T12:11:47;2.60;;;1.00;;
75535;SDS011;64119;52.070;20.804;2023-08-07T12:14:16;1.60;;;0.90;;
75535;SDS011;64119;52.070;20.804;2023-08-07T12:16:44;2.40;;;0.90;;
75535;SDS011;64119;52.070;20.804;2023-08-07T12:19:15;3.50;;;1.30;;
75535;SDS011;64119;52.070;20.804;2023-08-07T12:21:44;4.00;;;1.00;;
75535;SDS011;64119;52.070;20.804;2023-08-07T12:24:12;4.00;;;1.20;;
75535;SDS011;64119;52.070;20.804;2023-08-07T12:26:40;2.10;;;1.30;;
75535;SDS011;64119;52.070;20.804;2023-08-07T12:29:08;2.90;;;0.90;;
75535;SDS011;64119;52.070;20.804;2023-08-07T12:31:36;1.70;;;0.80;;
75535;SDS011;64119;52.070;20.804;2023-08-07T12:34:06;1.80;;;0.90;;
75535;SDS011;64119;52.070;20.804;2023-08-07T12:36:38;1.60;;;0.90;;
75535;SDS011;64119;52.070;20.804;2023-08-07T12:39:06;1.70;;;1.00;;
75535;SDS011;64119;52.070;20.804;2023-08-07T12:41:34;2.00;;;1.00;;
75535;SDS011;64119;52.070;20.804;2023-08-07T12:44:05;2.10;;;0.80;;
75535;SDS011;64119;52.070;20.804;2023-08-07T12:46:33;1.60;;;1.00;;
75535;SDS011;64119;52.070;20.804;2023-08-07T12:49:04;1.40;;;0.80;;
75535;SDS011;64119;52.070;20.804;2023-08-07T12:51:32;2.10;;;1.00;;
75535;SDS011;64119;52.070;20.804;2023-08-07T12:53:59;2.70;;;1.00;;
75535;SDS011;64119;52.070;20.804;2023-08-07T12:56:28;1.50;;;0.90;;
75535;SDS011;64119;52.070;20.804;2023-08-07T12:58:56;2.00;;;1.30;;
75535;SDS011;64119;52.070;20.804;2023-08-07T13:01:23;3.90;;;1.00;;
75535;SDS011;64119;52.070;20.804;2023-08-07T13:03:53;2.10;;;1.00;;
75535;SDS011;64119;52.070;20.804;2023-08-07T13:06:21;1.70;;;1.00;;
75535;SDS011;64119;52.070;20.804;2023-08-07T13:08:49;1.70;;;0.90;;
75535;SDS011;64119;52.070;20.804;2023-08-07T13:13:46;1.60;;;0.80;;
75535;SDS011;64119;52.070;20.804;2023-08-07T13:16:14;3.60;;;1.30;;
75535;SDS011;64119;52.070;20.804;2023-08-07T13:18:42;2.80;;;1.10;;
75535;SDS011;64119;52.070;20.804;2023-08-07T13:21:10;1.40;;;0.80;;
75535;SDS011;64119;52.070;20.804;2023-08-07T13:23:38;1.70;;;1.00;;
75535;SDS011;64119;52.070;20.804;2023-08-07T13:26:06;2.70;;;1.10;;
75535;SDS011;64119;52.070;20.804;2023-08-07T13:28:34;2.60;;;1.10;;
75535;SDS011;64119;52.070;20.804;2023-08-07T13:31:01;1.20;;;0.70;;
75535;SDS011;64119;52.070;20.804;2023-08-07T13:33:29;1.90;;;1.20;;
75535;SDS011;64119;52.070;20.804;2023-08-07T13:35:57;1.40;;;0.90;;
75535;SDS011;64119;52.070;20.804;2023-08-07T13:38:25;3.60;;;1.10;;
75535;SDS011;64119;52.070;20.804;2023-08-07T13:40:53;2.40;;;1.00;;
75535;SDS011;64119;52.070;20.804;2023-08-07T13:43:21;3.70;;;1.20;;
75535;SDS011;64119;52.070;20.804;2023-08-07T13:45:49;2.60;;;1.00;;
75535;SDS011;64119;52.070;20.804;2023-08-07T13:48:18;3.70;;;1.20;;
75535;SDS011;64119;52.070;20.804;2023-08-07T13:50:47;1.60;;;1.00;;
75535;SDS011;64119;52.070;20.804;2023-08-07T13:53:15;1.70;;;1.20;;
75535;SDS011;64119;52.070;20.804;2023-08-07T13:55:43;2.10;;;1.10;;
75535;SDS011;64119;52.070;20.804;2023-08-07T13:58:12;1.70;;;1.10;;
75535;SDS011;64119;52.070;20.804;2023-08-07T14:00:43;2.30;;;1.10;;
75535;SDS011;64119;52.070;20.804;2023-08-07T14:03:11;3.90;;;1.50;;
75535;SDS011;64119;52.070;20.804;2023-08-07T14:05:40;2.20;;;1.00;;
75535;SDS011;64119;52.070;20.804;2023-08-07T14:08:09;2.00;;;1.20;;
75535;SDS011;64119;52.070;20.804;2023-08-07T14:10:38;1.60;;;1.00;;
75535;SDS011;64119;52.070;20.804;2023-08-07T14:13:09;2.00;;;1.10;;
75535;SDS011;64119;52.070;20.804;2023-08-07T14:15:37;2.40;;;1.00;;
75535;SDS011;64119;52.070;20.804;2023-08-07T14:18:05;4.80;;;1.40;;
75535;SDS011;64119;52.070;20.804;2023-08-07T14:20:34;2.50;;;1.50;;
75535;SDS011;64119;52.070;20.804;2023-08-07T14:23:22;4.50;;;1.20;;
75535;SDS011;64119;52.070;20.804;2023-08-07T14:25:50;2.80;;;1.10;;
75535;SDS011;64119;52.070;20.804;2023-08-07T14:28:20;2.70;;;1.40;;
75535;SDS011;64119;52.070;20.804;2023-08-07T14:30:48;2.20;;;1.10;;
75535;SDS011;64119;52.070;20.804;2023-08-07T14:33:16;3.40;;;1.60;;
75535;SDS011;64119;52.070;20.804;2023-08-07T14:35:44;2.90;;;1.40;;
75535;SDS011;64119;52.070;20.804;2023-08-07T14:38:12;2.20;;;1.30;;
75535;SDS011;64119;52.070;20.804;2023-08-07T14:40:40;1.70;;;1.20;;
75535;SDS011;64119;52.070;20.804;2023-08-07T14:43:08;2.60;;;1.60;;
75535;SDS011;64119;52.070;20.804;2023-08-07T14:45:37;2.40;;;1.30;;
75535;SDS011;64119;52.070;20.804;2023-08-07T14:48:05;2.40;;;1.50;;
75535;SDS011;64119;52.070;20.804;2023-08-07T14:50:34;2.50;;;1.40;;
75535;SDS011;64119;52.070;20.804;2023-08-07T14:53:02;2.90;;;1.30;;
75535;SDS011;64119;52.070;20.804;2023-08-07T14:55:30;2.40;;;1.30;;
75535;SDS011;64119;52.070;20.804;2023-08-07T14:58:00;2.50;;;1.40;;
75535;SDS011;64119;52.070;20.804;2023-08-07T15:00:28;2.20;;;1.30;;
75535;SDS011;64119;52.070;20.804;2023-08-07T15:02:56;2.20;;;1.50;;
75535;SDS011;64119;52.070;20.804;2023-08-07T15:05:28;2.90;;;1.30;;
75535;SDS011;64119;52.070;20.804;2023-08-07T15:07:56;2.60;;;1.50;;
75535;SDS011;64119;52.070;20.804;2023-08-07T15:10:24;2.00;;;1.30;;
75535;SDS011;64119;52.070;20.804;2023-08-07T15:12:52;3.00;;;1.40;;
75535;SDS011;64119;52.070;20.804;2023-08-07T15:15:19;2.40;;;1.50;;
75535;SDS011;64119;52.070;20.804;2023-08-07T15:17:47;4.10;;;1.30;;
75535;SDS011;64119;52.070;20.804;2023-08-07T15:20:15;3.20;;;1.40;;